Time;durP1;ratioP1;P1;durP2;ratioP2;P2;SDS_P1;SDS_P2;PMS_P1;PMS_P2;Temp;Humidity;BMP_temperature;BMP_pressure;BME280_temperature;BME280_humidity;BME280_pressure;Samples;Min_cycle;Max_cycle;Signal;HPM_P1;HPM_P2
2023/12/17 00:01:07;;;;;;;0.68;0.68;;;20.60;46.10;;;;;;5024166;28;20029;-52
2023/12/17 00:03:33;;;;;;;1.10;0.70;;;20.60;46.10;;;;;;5023988;28;20096;-52
2023/12/17 00:05:59;;;;;;;0.75;0.68;;;20.60;46.10;;;;;;5025814;28;20063;-53
2023/12/17 00:08:25;;;;;;;1.05;0.80;;;20.60;46.10;;;;;;5024158;28;20029;-56
2023/12/17 00:10:51;;;;;;;1.00;0.90;;;20.60;46.10;;;;;;5022190;28;20033;-49
2023/12/17 00:13:18;;;;;;;0.60;0.60;;;20.60;46.10;;;;;;5019820;28;20037;-55
2023/12/17 00:15:45;;;;;;;0.73;0.70;;;20.60;46.00;;;;;;5023612;28;20033;-54
2023/12/17 00:18:12;;;;;;;0.45;0.45;;;20.60;46.10;;;;;;5022986;28;20030;-50
2023/12/17 00:20:38;;;;;;;0.75;0.70;;;20.60;46.10;;;;;;5025652;28;20373;-55
2023/12/17 00:23:04;;;;;;;0.75;0.55;;;20.60;46.10;;;;;;5022426;28;20037;-51
2023/12/17 00:25:31;;;;;;;0.45;0.43;;;20.60;46.10;;;;;;5023215;28;20052;-56
2023/12/17 00:27:57;;;;;;;0.85;0.77;;;20.60;46.10;;;;;;5022006;28;20018;-53
2023/12/17 00:30:22;;;;;;;0.45;0.45;;;20.60;46.10;;;;;;5026729;28;20068;-53
2023/12/17 00:32:49;;;;;;;0.63;0.38;;;20.60;46.10;;;;;;5023107;28;20021;-50
2023/12/17 00:35:15;;;;;;;1.10;0.63;;;20.50;46.00;;;;;;5024007;28;20101;-56
2023/12/17 00:37:41;;;;;;;0.65;0.50;;;20.50;46.00;;;;;;5025542;28;20053;-49
2023/12/17 00:40:07;;;;;;;0.68;0.50;;;20.50;46.00;;;;;;5024601;28;20025;-48
2023/12/17 00:42:33;;;;;;;1.58;0.32;;;20.50;46.00;;;;;;5005591;28;20033;-54
2023/12/17 00:44:59;;;;;;;1.00;0.50;;;20.50;46.00;;;;;;5023743;28;20034;-53
2023/12/17 00:47:24;;;;;;;0.40;0.40;;;20.50;46.00;;;;;;5027691;28;20026;-56
2023/12/17 00:49:52;;;;;;;0.68;0.32;;;20.50;46.00;;;;;;5026318;28;20033;-54
2023/12/17 00:52:19;;;;;;;0.80;0.60;;;20.50;46.00;;;;;;5024345;28;20447;-55
2023/12/17 00:54:46;;;;;;;0.82;0.68;;;20.50;46.00;;;;;;5025654;28;20403;-50
2023/12/17 00:57:12;;;;;;;0.38;0.38;;;20.50;46.00;;;;;;5038128;28;20079;-50
2023/12/17 00:59:37;;;;;;;0.70;0.43;;;20.50;46.00;;;;;;5021167;28;20050;-55
2023/12/17 01:02:03;;;;;;;1.30;0.43;;;20.50;46.00;;;;;;5024329;28;20065;-53
2023/12/17 01:04:29;;;;;;;0.40;0.40;;;20.50;46.00;;;;;;5023495;28;20041;-56
2023/12/17 01:06:55;;;;;;;0.68;0.50;;;20.40;45.90;;;;;;5021466;28;20033;-50
2023/12/17 01:09:21;;;;;;;0.40;0.40;;;20.40;45.90;;;;;;5022220;28;20032;-51
2023/12/17 01:11:46;;;;;;;0.85;0.50;;;20.50;46.00;;;;;;5022662;28;20018;-56
2023/12/17 01:14:12;;;;;;;0.52;0.40;;;20.50;46.00;;;;;;5026125;28;20413;-49
2023/12/17 01:16:38;;;;;;;1.40;0.40;;;20.50;46.00;;;;;;5023582;28;20045;-52
2023/12/17 01:19:04;;;;;;;0.60;0.40;;;20.40;45.90;;;;;;5027537;28;20080;-52
2023/12/17 01:21:30;;;;;;;0.22;0.22;;;20.40;45.90;;;;;;5020101;28;20128;-51
2023/12/17 01:23:57;;;;;;;0.40;0.40;;;20.40;45.90;;;;;;5025150;28;20026;-47
2023/12/17 01:26:26;;;;;;;0.93;0.45;;;20.40;45.90;;;;;;5024768;28;20120;-55
2023/12/17 01:28:52;;;;;;;0.68;0.40;;;20.40;45.90;;;;;;5022308;28;20060;-54
2023/12/17 01:31:18;;;;;;;1.17;0.50;;;20.40;45.90;;;;;;5022588;28;20036;-56
2023/12/17 01:33:44;;;;;;;0.85;0.50;;;20.40;45.90;;;;;;5024121;28;20033;-56
2023/12/17 01:36:10;;;;;;;0.45;0.43;;;20.40;45.90;;;;;;5024665;28;20105;-49
2023/12/17 01:38:36;;;;;;;0.57;0.57;;;20.40;45.90;;;;;;5025109;28;20067;-50
2023/12/17 01:41:02;;;;;;;0.60;0.50;;;20.40;45.90;;;;;;5040761;28;20034;-51
2023/12/17 01:43:28;;;;;;;0.88;0.60;;;20.30;45.90;;;;;;5026650;28;20393;-53
2023/12/17 01:45:55;;;;;;;0.43;0.43;;;20.40;45.90;;;;;;5027926;28;20059;-54
2023/12/17 01:48:22;;;;;;;0.70;0.52;;;20.40;45.90;;;;;;5027118;28;20026;-56
2023/12/17 01:50:49;;;;;;;1.10;0.50;;;20.40;45.90;;;;;;5029897;28;20032;-52
2023/12/17 01:53:16;;;;;;;0.88;0.57;;;20.40;46.00;;;;;;5024820;28;20421;-53
2023/12/17 01:55:44;;;;;;;0.63;0.50;;;20.30;45.90;;;;;;5027952;28;20034;-54
2023/12/17 01:58:10;;;;;;;0.68;0.50;;;20.30;46.50;;;;;;5030144;28;20030;-55
2023/12/17 02:00:37;;;;;;;1.05;0.50;;;20.30;45.90;;;;;;5025914;28;20090;-53
2023/12/17 02:03:03;;;;;;;0.50;0.40;;;20.30;45.90;;;;;;5028925;28;20021;-57
2023/12/17 02:05:36;;;;;;;0.40;0.40;;;20.30;45.90;;;;;;5025390;28;20037;-55
2023/12/17 02:08:03;;;;;;;0.40;0.30;;;20.30;45.90;;;;;;5023318;28;20484;-50
2023/12/17 02:10:29;;;;;;;0.50;0.38;;;20.30;45.90;;;;;;5029799;28;20036;-55
2023/12/17 02:12:58;;;;;;;0.90;0.40;;;20.30;45.90;;;;;;5027081;28;20437;-56
2023/12/17 02:15:24;;;;;;;0.95;0.50;;;20.30;45.90;;;;;;5025698;28;20463;-54
2023/12/17 02:17:49;;;;;;;0.50;0.30;;;20.30;45.90;;;;;;5023746;28;20061;-50
2023/12/17 02:20:15;;;;;;;0.50;0.30;;;20.30;45.90;;;;;;5025339;28;20037;-53
2023/12/17 02:22:42;;;;;;;0.55;0.30;;;20.30;45.50;;;;;;5024697;28;20057;-54
2023/12/17 02:25:09;;;;;;;0.60;0.50;;;20.30;45.90;;;;;;5027661;28;20029;-50
2023/12/17 02:27:35;;;;;;;0.47;0.45;;;20.30;45.90;;;;;;5024791;28;20037;-53
2023/12/17 02:30:01;;;;;;;1.05;0.50;;;20.30;45.90;;;;;;5027349;28;20197;-52
2023/12/17 02:32:27;;;;;;;0.47;0.40;;;20.30;45.90;;;;;;5026087;28;20049;-56
2023/12/17 02:34:53;;;;;;;0.50;0.35;;;20.30;45.90;;;;;;5025973;28;20021;-55
2023/12/17 02:37:19;;;;;;;0.35;0.25;;;20.30;45.90;;;;;;5024302;28;20033;-54
2023/12/17 02:39:45;;;;;;;0.43;0.40;;;20.30;45.90;;;;;;5024834;28;20043;-54
2023/12/17 02:42:11;;;;;;;0.40;0.38;;;20.30;45.90;;;;;;5024636;28;20041;-53
2023/12/17 02:44:37;;;;;;;0.70;0.60;;;20.30;45.90;;;;;;5026087;28;20113;-50
2023/12/17 02:47:02;;;;;;;1.27;0.40;;;20.30;46.50;;;;;;5044757;28;20033;-49
2023/12/17 02:49:28;;;;;;;1.10;0.43;;;20.20;45.80;;;;;;5024036;28;20052;-55
2023/12/17 02:51:57;;;;;;;1.00;0.50;;;20.20;45.70;;;;;;5024376;28;20018;-57
2023/12/17 02:54:23;;;;;;;0.73;0.50;;;20.20;45.70;;;;;;5021373;28;20022;-53
2023/12/17 02:56:52;;;;;;;0.30;0.30;;;20.20;45.70;;;;;;5027327;28;20396;-47
2023/12/17 02:59:18;;;;;;;0.63;0.50;;;20.20;45.70;;;;;;5025355;28;20021;-50
2023/12/17 03:01:45;;;;;;;0.35;0.35;;;20.20;45.60;;;;;;5022426;28;20048;-54
2023/12/17 03:04:11;;;;;;;0.80;0.50;;;20.20;45.70;;;;;;5023509;28;20426;-54
2023/12/17 03:06:38;;;;;;;1.13;0.60;;;20.20;45.70;;;;;;5024420;28;20033;-53
2023/12/17 03:09:04;;;;;;;0.77;0.65;;;20.20;45.70;;;;;;5027828;28;20116;-54
2023/12/17 03:11:30;;;;;;;0.57;0.50;;;20.20;45.70;;;;;;5029766;28;20018;-55
2023/12/17 03:13:56;;;;;;;1.05;0.60;;;20.20;45.70;;;;;;5025383;28;20092;-54
2023/12/17 03:16:23;;;;;;;0.50;0.40;;;20.20;45.70;;;;;;5022286;28;20041;-50
2023/12/17 03:18:49;;;;;;;1.20;0.52;;;20.20;45.80;;;;;;5021920;28;20026;-50
2023/12/17 03:21:14;;;;;;;1.02;0.50;;;20.20;45.70;;;;;;5023733;28;20057;-54
2023/12/17 03:23:40;;;;;;;0.68;0.40;;;20.20;45.70;;;;;;5026093;28;20025;-51
2023/12/17 03:26:07;;;;;;;0.70;0.50;;;20.20;45.80;;;;;;5025300;28;20041;-55
2023/12/17 03:28:32;;;;;;;1.08;0.80;;;20.10;45.70;;;;;;5024078;28;20025;-51
2023/12/17 03:30:58;;;;;;;0.63;0.50;;;20.10;45.70;;;;;;5027145;28;20075;-54
2023/12/17 03:33:24;;;;;;;0.63;0.50;;;20.10;45.70;;;;;;5023893;28;20342;-53
2023/12/17 03:35:50;;;;;;;1.70;0.65;;;20.10;45.70;;;;;;5023879;28;20025;-53
2023/12/17 03:38:16;;;;;;;0.95;0.50;;;20.10;45.70;;;;;;5020051;28;20519;-54
2023/12/17 03:40:42;;;;;;;1.00;0.50;;;20.10;45.70;;;;;;5027555;28;20041;-53
2023/12/17 03:43:08;;;;;;;0.43;0.38;;;20.10;45.80;;;;;;5026373;28;20437;-52
2023/12/17 03:45:35;;;;;;;0.88;0.50;;;20.10;45.80;;;;;;5024772;28;20029;-50
2023/12/17 03:48:02;;;;;;;0.98;0.60;;;20.10;45.80;;;;;;5025410;28;20329;-57
2023/12/17 03:50:28;;;;;;;1.45;0.70;;;20.10;45.80;;;;;;5024970;28;20049;-53
2023/12/17 03:52:54;;;;;;;0.60;0.40;;;20.10;45.80;;;;;;5027269;28;20029;-51
2023/12/17 03:55:20;;;;;;;1.15;0.70;;;20.10;45.80;;;;;;5023866;28;20026;-51
2023/12/17 03:57:49;;;;;;;1.48;0.70;;;20.10;45.80;;;;;;5039313;28;20148;-51
2023/12/17 04:00:15;;;;;;;0.57;0.30;;;20.10;45.80;;;;;;5028482;28;20026;-54
2023/12/17 04:02:41;;;;;;;1.23;0.50;;;20.10;45.80;;;;;;5023137;28;20072;-55
2023/12/17 04:05:08;;;;;;;0.50;0.40;;;20.10;45.80;;;;;;5024222;28;20049;-54
2023/12/17 04:07:34;;;;;;;0.68;0.30;;;20.10;45.80;;;;;;5023582;28;20021;-50
2023/12/17 04:10:01;;;;;;;1.02;0.50;;;20.10;45.80;;;;;;5027891;28;20032;-54
2023/12/17 04:12:27;;;;;;;0.63;0.47;;;20.10;45.80;;;;;;5023995;28;20025;-51
2023/12/17 04:14:53;;;;;;;0.68;0.38;;;20.10;45.80;;;;;;5023612;28;20026;-52
2023/12/17 04:17:18;;;;;;;0.88;0.40;;;20.10;45.80;;;;;;5028697;28;20032;-53
2023/12/17 04:19:44;;;;;;;2.30;0.45;;;20.10;45.80;;;;;;5024956;28;20125;-55
2023/12/17 04:22:10;;;;;;;1.02;0.55;;;20.10;45.80;;;;;;5028266;28;20033;-53
2023/12/17 04:24:36;;;;;;;0.63;0.43;;;20.00;45.70;;;;;;5020789;28;20389;-53
2023/12/17 04:27:02;;;;;;;0.75;0.40;;;20.10;45.80;;;;;;5026941;28;20040;-55
2023/12/17 04:29:27;;;;;;;0.60;0.40;;;20.00;45.70;;;;;;5025580;28;20054;-55
2023/12/17 04:31:53;;;;;;;0.90;0.45;;;20.00;45.70;;;;;;5025662;28;20057;-55
2023/12/17 04:34:19;;;;;;;0.90;0.50;;;20.00;45.80;;;;;;5025664;28;20302;-53
2023/12/17 04:36:44;;;;;;;0.50;0.35;;;20.00;45.80;;;;;;5021462;28;20441;-50
2023/12/17 04:39:10;;;;;;;0.75;0.40;;;20.00;45.70;;;;;;5021214;28;20025;-50
2023/12/17 04:41:40;;;;;;;1.45;0.47;;;20.00;45.70;;;;;;5023553;28;20045;-53
2023/12/17 04:44:07;;;;;;;0.80;0.50;;;20.00;45.70;;;;;;5025279;28;20032;-52
2023/12/17 04:46:32;;;;;;;1.02;0.60;;;20.00;45.70;;;;;;5024802;28;20106;-54
2023/12/17 04:48:58;;;;;;;0.82;0.40;;;20.00;45.70;;;;;;5040087;28;20094;-52
2023/12/17 04:51:25;;;;;;;0.70;0.55;;;20.00;45.80;;;;;;5025557;28;20352;-53
2023/12/17 04:53:51;;;;;;;0.73;0.50;;;20.00;45.80;;;;;;5023882;28;20108;-51
2023/12/17 04:56:20;;;;;;;0.70;0.60;;;20.00;45.70;;;;;;5025271;28;20034;-51
2023/12/17 04:58:45;;;;;;;0.80;0.52;;;20.00;45.70;;;;;;5022034;28;20026;-53
2023/12/17 05:01:11;;;;;;;1.13;0.47;;;20.00;45.80;;;;;;5024132;28;20049;-51
2023/12/17 05:03:38;;;;;;;0.40;0.38;;;20.00;45.80;;;;;;5024056;28;20026;-50
2023/12/17 05:06:05;;;;;;;1.42;0.70;;;20.00;45.90;;;;;;5040044;28;20030;-50
2023/12/17 05:08:30;;;;;;;1.30;0.50;;;20.00;45.90;;;;;;5024867;28;20156;-52
2023/12/17 05:10:56;;;;;;;0.30;0.30;;;20.00;45.90;;;;;;5024533;28;20441;-53
2023/12/17 05:13:22;;;;;;;0.50;0.43;;;20.00;45.90;;;;;;5024549;28;20499;-53
2023/12/17 05:15:49;;;;;;;1.15;0.70;;;20.00;45.90;;;;;;5024989;28;20025;-51
2023/12/17 05:18:15;;;;;;;0.50;0.50;;;20.00;45.90;;;;;;5027052;28;20022;-49
2023/12/17 05:20:41;;;;;;;0.52;0.50;;;20.00;45.90;;;;;;5028661;28;20449;-51
2023/12/17 05:23:08;;;;;;;0.68;0.50;;;20.00;45.90;;;;;;5027826;28;20037;-54
2023/12/17 05:25:34;;;;;;;0.98;0.73;;;20.00;46.00;;;;;;5025730;28;20050;-56
2023/12/17 05:28:00;;;;;;;1.55;0.70;;;20.00;46.00;;;;;;5020854;28;20032;-54
2023/12/17 05:30:26;;;;;;;0.80;0.60;;;20.00;46.00;;;;;;5024505;28;20065;-52
2023/12/17 05:32:52;;;;;;;0.63;0.60;;;19.90;46.00;;;;;;5040967;28;20029;-53
2023/12/17 05:35:18;;;;;;;0.80;0.57;;;20.00;46.10;;;;;;5027247;28;20025;-56
2023/12/17 05:37:43;;;;;;;0.95;0.63;;;19.90;46.00;;;;;;5027285;28;20352;-55
2023/12/17 05:40:10;;;;;;;1.63;0.70;;;19.90;46.10;;;;;;5025873;28;20555;-54
2023/12/17 05:42:36;;;;;;;1.23;0.88;;;19.90;46.10;;;;;;5024726;28;20346;-51
2023/12/17 05:45:02;;;;;;;1.13;0.80;;;19.90;46.10;;;;;;5025695;28;20041;-53
2023/12/17 05:47:30;;;;;;;1.58;0.80;;;19.90;46.10;;;;;;5027891;28;20076;-53
2023/12/17 05:49:56;;;;;;;1.33;1.00;;;19.90;46.10;;;;;;5028867;28;20099;-53
2023/12/17 05:52:21;;;;;;;2.03;1.00;;;19.90;46.10;;;;;;5024698;28;20052;-51
2023/12/17 05:54:47;;;;;;;1.10;0.98;;;19.90;46.10;;;;;;5030525;28;20040;-48
2023/12/17 05:57:13;;;;;;;0.73;0.73;;;19.90;46.20;;;;;;5043246;28;20452;-50
2023/12/17 05:59:40;;;;;;;1.60;0.88;;;19.90;46.20;;;;;;5028078;28;20040;-51
2023/12/17 06:02:06;;;;;;;0.98;0.75;;;19.90;46.20;;;;;;5026278;28;20436;-52
2023/12/17 06:04:32;;;;;;;1.67;1.30;;;19.90;46.20;;;;;;5027152;28;20041;-54
2023/12/17 06:06:58;;;;;;;1.80;1.20;;;19.90;46.20;;;;;;5023380;28;20030;-52
2023/12/17 06:09:25;;;;;;;2.05;1.30;;;19.90;46.20;;;;;;5032978;28;20083;-54
2023/12/17 06:11:51;;;;;;;2.08;1.60;;;19.90;46.20;;;;;;5029686;28;20039;-55
2023/12/17 06:14:17;;;;;;;1.40;1.20;;;19.90;46.20;;;;;;5022428;28;20022;-55
2023/12/17 06:16:44;;;;;;;1.33;1.15;;;19.90;46.20;;;;;;5021218;28;20369;-54
2023/12/17 06:19:13;;;;;;;1.30;1.20;;;19.90;46.20;;;;;;5026299;28;20498;-54
2023/12/17 06:21:39;;;;;;;2.40;1.45;;;19.90;46.20;;;;;;5031134;28;20041;-52
2023/12/17 06:24:05;;;;;;;1.50;1.40;;;19.90;46.20;;;;;;5023970;28;20030;-49
2023/12/17 06:26:31;;;;;;;2.20;1.50;;;19.80;46.10;;;;;;5032862;28;20038;-54
2023/12/17 06:28:57;;;;;;;1.73;1.23;;;19.80;46.10;;;;;;5025968;28;20025;-54
2023/12/17 06:31:24;;;;;;;2.03;1.30;;;19.90;46.20;;;;;;5025268;28;20029;-52
2023/12/17 06:33:53;;;;;;;1.42;1.20;;;19.80;46.10;;;;;;5032595;28;20072;-51
2023/12/17 06:36:22;;;;;;;1.60;1.50;;;19.80;46.20;;;;;;5033240;28;20026;-52
2023/12/17 06:38:48;;;;;;;1.92;1.50;;;19.80;46.20;;;;;;5026600;28;20096;-51
2023/12/17 06:41:14;;;;;;;1.92;1.48;;;19.80;46.20;;;;;;5031781;28;20038;-54
2023/12/17 06:43:40;;;;;;;2.88;1.52;;;19.80;46.20;;;;;;5028004;28;20045;-52
2023/12/17 06:46:07;;;;;;;1.70;1.25;;;19.80;46.20;;;;;;5033914;28;20029;-52
2023/12/17 06:48:36;;;;;;;2.28;1.73;;;19.80;46.20;;;;;;5032045;28;20098;-55
2023/12/17 06:51:03;;;;;;;1.63;1.40;;;19.80;46.20;;;;;;5016778;28;20041;-52
2023/12/17 06:53:29;;;;;;;2.25;1.60;;;19.80;46.20;;;;;;5023785;28;20032;-54
2023/12/17 06:55:55;;;;;;;2.15;1.27;;;19.80;46.20;;;;;;5017760;28;20083;-51
2023/12/17 06:58:21;;;;;;;1.88;1.30;;;19.80;46.20;;;;;;5031108;28;20109;-51
2023/12/17 07:00:47;;;;;;;1.70;1.25;;;19.80;46.20;;;;;;5028098;28;20479;-52
2023/12/17 07:03:13;;;;;;;2.05;1.52;;;19.80;46.20;;;;;;5031251;28;20022;-50
2023/12/17 07:05:38;;;;;;;1.45;1.20;;;19.80;46.20;;;;;;5018810;28;20424;-50
2023/12/17 07:08:05;;;;;;;1.42;1.30;;;19.80;46.20;;;;;;5031138;28;20037;-53
2023/12/17 07:10:31;;;;;;;1.70;1.33;;;19.80;46.20;;;;;;5032713;28;20033;-54
2023/12/17 07:12:57;;;;;;;1.45;1.00;;;19.80;46.80;;;;;;5027386;28;20033;-54
2023/12/17 07:15:23;;;;;;;1.90;1.30;;;19.80;46.10;;;;;;5024383;28;20049;-54
2023/12/17 07:17:48;;;;;;;1.42;1.13;;;19.80;46.20;;;;;;5032295;28;20087;-54
2023/12/17 07:20:14;;;;;;;1.70;1.17;;;19.80;46.10;;;;;;5026883;28;20054;-54
2023/12/17 07:22:40;;;;;;;1.80;1.35;;;19.80;46.10;;;;;;5021238;28;20036;-53
2023/12/17 07:25:06;;;;;;;2.15;1.20;;;19.80;46.10;;;;;;5016266;28;20112;-52
2023/12/17 07:27:32;;;;;;;2.17;1.45;;;19.80;46.10;;;;;;5027240;28;20025;-52
2023/12/17 07:29:58;;;;;;;1.65;1.23;;;19.80;46.10;;;;;;5029226;28;20045;-55
2023/12/17 07:32:24;;;;;;;1.42;1.05;;;19.80;46.70;;;;;;5033039;28;20044;-55
2023/12/17 07:34:49;;;;;;;1.65;1.30;;;19.80;46.10;;;;;;5022925;28;20022;-54
2023/12/17 07:37:16;;;;;;;2.22;1.38;;;19.80;46.10;;;;;;5025894;28;20025;-51
2023/12/17 07:39:42;;;;;;;1.40;1.30;;;19.80;46.10;;;;;;5027987;28;20034;-50
2023/12/17 07:42:07;;;;;;;1.50;1.38;;;19.80;46.10;;;;;;5015886;28;20135;-55
2023/12/17 07:44:33;;;;;;;1.92;1.40;;;19.70;46.10;;;;;;5029154;28;20037;-54
2023/12/17 07:47:00;;;;;;;1.80;1.30;;;19.80;46.10;;;;;;5033435;28;20104;-54
2023/12/17 07:49:26;;;;;;;1.30;1.20;;;19.70;46.10;;;;;;5029163;28;20468;-54
2023/12/17 07:51:52;;;;;;;2.00;1.65;;;19.80;46.20;;;;;;5018345;28;20425;-54
2023/12/17 07:54:19;;;;;;;2.60;1.70;;;19.80;46.20;;;;;;5030691;28;20093;-53
2023/12/17 07:56:45;;;;;;;2.85;1.52;;;19.80;46.90;;;;;;5017095;28;20053;-52
2023/12/17 07:59:11;;;;;;;2.42;1.65;;;19.80;46.20;;;;;;5017832;28;20030;-56
2023/12/17 08:01:36;;;;;;;2.10;1.55;;;19.80;46.20;;;;;;5025928;28;20203;-54
2023/12/17 08:04:03;;;;;;;3.08;1.98;;;19.80;46.10;;;;;;5032706;28;20025;-51
2023/12/17 08:06:29;;;;;;;2.40;1.73;;;19.90;46.10;;;;;;5028435;28;20072;-55
2023/12/17 08:08:56;;;;;;;2.97;1.70;;;20.00;46.70;;;;;;5027997;28;20425;-55
2023/12/17 08:11:22;;;;;;;2.38;1.80;;;20.00;45.90;;;;;;5018851;28;20384;-56
2023/12/17 08:13:48;;;;;;;3.72;2.30;;;20.10;45.80;;;;;;5015566;28;20049;-52
2023/12/17 08:16:14;;;;;;;2.78;2.13;;;20.20;45.80;;;;;;5015673;28;20123;-58
2023/12/17 08:18:40;;;;;;;3.65;2.45;;;20.30;45.80;;;;;;5032148;28;20082;-55
2023/12/17 08:21:06;;;;;;;3.20;2.40;;;20.30;45.60;;;;;;5024658;28;20405;-53
2023/12/17 08:23:32;;;;;;;3.83;2.40;;;20.40;45.50;;;;;;5023808;28;20072;-56
2023/12/17 08:25:58;;;;;;;3.35;2.17;;;20.50;45.50;;;;;;5022901;28;20083;-56
2023/12/17 08:28:24;;;;;;;3.75;2.53;;;20.60;45.40;;;;;;5031046;28;20113;-54
2023/12/17 08:30:53;;;;;;;3.65;2.42;;;20.60;45.20;;;;;;5045404;28;20518;-51
2023/12/17 08:33:19;;;;;;;3.15;2.60;;;20.70;45.80;;;;;;5033895;28;20486;-55
2023/12/17 08:35:45;;;;;;;3.38;2.42;;;20.80;45.10;;;;;;5034065;28;20029;-52
2023/12/17 08:38:11;;;;;;;3.25;2.30;;;20.80;45.00;;;;;;5034566;28;20047;-54
2023/12/17 08:40:38;;;;;;;3.53;2.50;;;20.90;44.90;;;;;;5030274;28;20029;-51
2023/12/17 08:43:06;;;;;;;3.45;2.53;;;21.00;44.90;;;;;;5017072;28;20096;-53
2023/12/17 08:45:32;;;;;;;3.45;2.58;;;21.10;44.80;;;;;;5026531;28;20030;-54
2023/12/17 08:47:59;;;;;;;3.40;2.58;;;21.10;44.70;;;;;;5030009;28;20029;-53
2023/12/17 08:50:26;;;;;;;3.75;2.38;;;21.20;44.60;;;;;;5032277;28;21801;-55
2023/12/17 08:52:52;;;;;;;2.50;2.30;;;21.30;44.50;;;;;;5017264;28;20433;-53
2023/12/17 08:55:19;;;;;;;3.17;2.58;;;21.30;44.30;;;;;;5019319;28;20034;-54
2023/12/17 08:57:46;;;;;;;2.78;2.30;;;21.40;44.20;;;;;;5018334;28;20476;-52
2023/12/17 09:00:13;;;;;;;3.35;2.58;;;21.40;44.00;;;;;;5019718;28;20353;-49
2023/12/17 09:02:39;;;;;;;4.10;2.60;;;21.50;44.00;;;;;;5034135;28;20033;-53
2023/12/17 09:05:05;;;;;;;3.47;2.45;;;21.50;43.90;;;;;;5038630;28;20026;-51
2023/12/17 09:07:31;;;;;;;2.67;2.15;;;21.60;43.80;;;;;;5031055;28;20171;-54
2023/12/17 09:09:57;;;;;;;3.50;2.28;;;21.60;43.80;;;;;;5039319;28;20112;-55
2023/12/17 09:12:23;;;;;;;2.72;2.20;;;21.60;43.70;;;;;;5054328;28;20040;-56
2023/12/17 09:14:49;;;;;;;3.35;2.60;;;21.60;43.70;;;;;;5038901;28;20132;-54
2023/12/17 09:17:15;;;;;;;3.20;2.55;;;21.60;43.60;;;;;;5037101;28;20429;-51
2023/12/17 09:19:40;;;;;;;5.03;2.55;;;21.60;43.60;;;;;;5023559;28;20050;-53
2023/12/17 09:22:06;;;;;;;5.15;2.63;;;21.60;43.60;;;;;;5022838;28;20053;-53
2023/12/17 09:24:32;;;;;;;3.80;2.50;;;21.60;43.60;;;;;;5033673;28;20135;-53
2023/12/17 09:27:00;;;;;;;3.92;2.65;;;21.60;43.60;;;;;;5031055;28;20117;-53
2023/12/17 09:29:26;;;;;;;3.67;2.78;;;21.60;43.60;;;;;;5032655;28;20103;-52
2023/12/17 09:31:51;;;;;;;4.00;2.65;;;21.60;43.60;;;;;;5024337;28;20457;-53
2023/12/17 09:34:17;;;;;;;3.50;2.75;;;21.60;43.60;;;;;;5029146;28;20132;-55
2023/12/17 09:36:43;;;;;;;3.35;2.75;;;21.60;43.70;;;;;;5027492;28;20029;-54
2023/12/17 09:39:11;;;;;;;3.58;2.67;;;21.60;43.80;;;;;;5033950;28;20137;-56
2023/12/17 09:41:37;;;;;;;4.40;2.58;;;21.60;43.90;;;;;;5017490;28;20061;-65
2023/12/17 09:44:12;;;;;;;2.65;2.00;;;21.60;43.90;;;;;;5037041;28;20031;-63
2023/12/17 09:46:38;;;;;;;2.38;1.80;;;21.60;43.70;;;;;;5034394;28;20021;-59
2023/12/17 09:49:04;;;;;;;2.47;1.88;;;21.50;43.60;;;;;;5042133;28;20022;-57
2023/12/17 09:51:36;;;;;;;1.85;1.40;;;21.50;43.50;;;;;;5028924;28;20025;-57
2023/12/17 09:54:03;;;;;;;1.92;1.73;;;21.50;43.40;;;;;;5027893;28;20443;-59
2023/12/17 09:56:29;;;;;;;3.88;1.75;;;21.50;43.40;;;;;;5028915;28;20543;-57
2023/12/17 09:58:55;;;;;;;2.50;2.30;;;21.50;43.30;;;;;;5032289;28;20051;-59
2023/12/17 10:01:22;;;;;;;2.63;1.90;;;21.50;43.30;;;;;;5043572;28;20038;-59
2023/12/17 10:03:47;;;;;;;2.65;1.92;;;21.40;43.20;;;;;;5022194;28;20084;-51
2023/12/17 10:06:13;;;;;;;1.63;1.42;;;21.40;43.30;;;;;;5048627;28;20033;-56
2023/12/17 10:08:39;;;;;;;2.25;2.00;;;21.40;43.30;;;;;;5028458;28;20028;-51
2023/12/17 10:11:07;;;;;;;2.40;1.70;;;21.40;43.30;;;;;;5019299;28;20345;-57
2023/12/17 10:13:33;;;;;;;2.40;2.00;;;21.40;43.40;;;;;;5033117;28;20032;-59
2023/12/17 10:15:59;;;;;;;2.60;2.03;;;21.30;43.30;;;;;;5021156;28;20022;-59
2023/12/17 10:18:25;;;;;;;2.40;1.80;;;21.30;43.40;;;;;;5032465;28;20026;-59
2023/12/17 10:20:50;;;;;;;2.47;1.98;;;21.30;43.40;;;;;;5022864;28;20045;-56
2023/12/17 10:23:16;;;;;;;2.50;1.83;;;21.30;43.40;;;;;;5020773;28;20030;-56
2023/12/17 10:25:43;;;;;;;2.15;1.58;;;21.30;43.50;;;;;;5024762;28;20117;-57
2023/12/17 10:28:13;;;;;;;2.38;1.77;;;21.20;43.40;;;;;;5023135;28;20026;-54
2023/12/17 10:30:39;;;;;;;1.95;1.60;;;21.20;43.50;;;;;;5023116;28;20033;-60
2023/12/17 10:33:05;;;;;;;2.63;1.95;;;21.20;43.50;;;;;;5022609;28;20117;-52
2023/12/17 10:35:32;;;;;;;2.40;1.65;;;21.20;43.60;;;;;;5030384;28;20437;-52
2023/12/17 10:38:00;;;;;;;2.20;1.73;;;21.20;43.50;;;;;;5028161;28;20033;-67
2023/12/17 10:40:30;;;;;;;1.48;1.30;;;21.20;43.60;;;;;;5023734;28;20041;-68
2023/12/17 10:42:59;;;;;;;0.90;0.80;;;21.10;43.50;;;;;;5037063;28;20025;-68
2023/12/17 10:45:26;;;;;;;1.42;1.23;;;21.10;44.20;;;;;;5044463;28;20084;-52
2023/12/17 10:47:56;;;;;;;1.60;1.15;;;21.00;43.80;;;;;;5024979;28;20030;-54
2023/12/17 10:50:23;;;;;;;9.55;5.10;;;20.90;43.80;;;;;;5026303;28;20044;-51
2023/12/17 10:52:50;;;;;;;12.50;6.45;;;20.90;44.00;;;;;;5023166;28;20025;-51
2023/12/17 10:55:17;;;;;;;10.85;6.20;;;20.90;44.40;;;;;;5040591;28;20026;-55
2023/12/17 10:57:56;;;;;;;9.02;5.93;;;20.90;44.90;;;;;;5017629;28;20021;-50
2023/12/17 11:00:26;;;;;;;9.65;5.05;;;20.90;45.40;;;;;;5023015;28;20034;-54
2023/12/17 11:02:58;;;;;;;9.63;6.05;;;20.90;45.90;;;;;;5027796;28;20407;-54
2023/12/17 11:05:23;;;;;;;8.38;5.35;;;20.90;46.30;;;;;;5023367;28;20380;-57
2023/12/17 11:07:49;;;;;;;15.50;8.65;;;21.00;47.00;;;;;;5020435;28;20026;-56
2023/12/17 11:10:17;;;;;;;12.55;6.88;;;21.00;47.50;;;;;;5041111;28;20388;-51
2023/12/17 11:12:46;;;;;;;12.93;5.95;;;21.00;48.00;;;;;;5030762;28;20022;-54
2023/12/17 11:15:13;;;;;;;11.73;5.80;;;21.10;48.30;;;;;;5017564;28;20116;-54
2023/12/17 11:17:39;;;;;;;8.07;4.72;;;21.10;48.20;;;;;;5026481;28;20350;-55
2023/12/17 11:20:06;;;;;;;9.05;4.82;;;21.10;47.90;;;;;;5023770;28;20374;-50
2023/12/17 11:22:36;;;;;;;9.90;5.70;;;21.10;47.90;;;;;;5025511;28;20045;-51
2023/12/17 11:25:03;;;;;;;10.82;4.82;;;21.10;47.90;;;;;;5019798;28;20119;-48
2023/12/17 11:27:31;;;;;;;9.25;5.00;;;21.10;48.10;;;;;;5028535;28;20120;-48
2023/12/17 11:29:57;;;;;;;7.32;4.13;;;21.10;48.20;;;;;;5029573;28;20077;-52
2023/12/17 11:32:27;;;;;;;8.32;4.28;;;21.10;47.90;;;;;;5026964;28;20322;-56
2023/12/17 11:34:55;;;;;;;6.82;3.60;;;21.10;47.70;;;;;;5027636;28;20033;-51
2023/12/17 11:37:34;;;;;;;7.40;3.83;;;21.10;47.40;;;;;;5066757;28;21174;-50
2023/12/17 11:40:00;;;;;;;6.43;3.25;;;21.10;47.20;;;;;;5064260;28;20110;-53
2023/12/17 11:42:25;;;;;;;5.07;3.00;;;21.10;46.90;;;;;;5064128;28;20448;-48
2023/12/17 11:44:51;;;;;;;5.70;3.05;;;21.10;46.70;;;;;;5060043;28;20036;-48
2023/12/17 11:47:25;;;;;;;5.53;3.10;;;21.10;46.50;;;;;;5055405;28;20479;-50
2023/12/17 11:49:58;;;;;;;4.60;3.05;;;21.10;46.30;;;;;;5053228;28;20428;-52
2023/12/17 11:52:25;;;;;;;5.38;2.53;;;21.10;46.20;;;;;;5060098;28;20036;-50
2023/12/17 11:55:01;;;;;;;4.18;2.55;;;21.10;46.00;;;;;;5058570;28;20032;-48
2023/12/17 11:57:28;;;;;;;3.72;2.55;;;21.10;45.80;;;;;;5060573;28;20036;-53
2023/12/17 11:59:55;;;;;;;4.05;2.67;;;21.10;45.70;;;;;;5057400;28;20028;-47
2023/12/17 12:02:23;;;;;;;4.38;2.60;;;21.10;45.50;;;;;;5049008;28;20528;-54
2023/12/17 12:04:51;;;;;;;3.28;2.28;;;21.10;45.40;;;;;;5049685;28;20116;-53
2023/12/17 12:07:19;;;;;;;5.88;2.45;;;21.10;45.30;;;;;;5046112;28;20072;-55
2023/12/17 12:09:45;;;;;;;3.50;1.92;;;21.10;45.10;;;;;;5057906;28;20056;-54
2023/12/17 12:12:24;;;;;;;3.25;2.50;;;21.20;45.10;;;;;;5049686;28;20601;-55
2023/12/17 12:14:51;;;;;;;3.70;2.63;;;21.20;44.90;;;;;;5057596;28;20041;-53
2023/12/17 12:17:39;;;;;;;3.45;2.30;;;21.20;44.80;;;;;;5058829;28;20048;-56
2023/12/17 12:20:06;;;;;;;3.50;2.58;;;21.20;44.70;;;;;;5065482;28;20036;-53
2023/12/17 12:22:32;;;;;;;4.18;2.45;;;21.20;44.60;;;;;;5050476;28;20021;-52
2023/12/17 12:24:58;;;;;;;2.88;2.10;;;21.20;44.50;;;;;;5051007;28;20356;-54
2023/12/17 12:27:24;;;;;;;3.17;2.20;;;21.20;44.40;;;;;;5049533;28;20021;-54
2023/12/17 12:29:52;;;;;;;4.47;2.65;;;21.20;44.30;;;;;;5055747;28;20041;-53
2023/12/17 12:32:31;;;;;;;2.90;2.13;;;21.20;44.30;;;;;;5049430;28;20808;-54
2023/12/17 12:34:58;;;;;;;4.40;2.40;;;21.20;44.20;;;;;;5052514;28;20025;-51
2023/12/17 12:37:38;;;;;;;2.28;1.90;;;21.30;44.30;;;;;;5071515;28;20383;-57
2023/12/17 12:40:05;;;;;;;3.25;2.17;;;21.30;44.20;;;;;;5047834;28;20398;-52
2023/12/17 12:42:33;;;;;;;2.53;1.90;;;21.30;44.10;;;;;;5080175;28;20059;-53